Time;durP1;ratioP1;P1;durP2;ratioP2;P2;SDS_P1;SDS_P2;PMS_P1;PMS_P2;Temp;Humidity;BMP_temperature;BMP_pressure;BME280_temperature;BME280_humidity;BME280_pressure;Samples;Min_cycle;Max_cycle;Signal;HPM_P1;HPM_P2
2022/09/03 00:01:04;;;;;;;15.52;12.07;;;;;;;22.80;78.07;99432.16;5071614;28;20107;-46
2022/09/03 00:03:42;;;;;;;13.40;11.18;;;;;;;22.56;78.82;99433.00;5071512;28;20030;-45
2022/09/03 00:06:25;;;;;;;13.93;11.32;;;;;;;22.53;79.59;99438.19;5071973;28;20373;-43
2022/09/03 00:09:23;;;;;;;13.25;11.80;;;;;;;22.77;78.24;99432.72;5072058;28;20032;-44
2022/09/03 00:12:09;;;;;;;14.05;11.07;;;;;;;22.74;77.81;99433.31;5071496;28;20111;-43
2022/09/03 00:14:45;;;;;;;13.25;10.85;;;;;;;22.60;79.38;99436.75;5071157;28;20036;-46
2022/09/03 00:17:15;;;;;;;13.75;11.48;;;;;;;22.44;79.27;99435.31;5071192;28;20484;-43
2022/09/03 00:20:03;;;;;;;14.93;11.32;;;;;;;22.61;78.48;99441.06;5070163;28;20119;-44
2022/09/03 00:22:34;;;;;;;13.95;11.38;;;;;;;22.51;78.79;99443.91;5071289;28;20414;-44
2022/09/03 00:25:04;;;;;;;13.68;11.50;;;;;;;22.32;79.76;99443.06;5071269;28;20026;-46
2022/09/03 00:27:36;;;;;;;12.82;11.50;;;;;;;22.31;80.19;99447.66;5071265;28;20031;-44
2022/09/03 00:30:11;;;;;;;15.88;11.95;;;;;;;22.42;79.40;99437.50;5071690;28;20020;-44
2022/09/03 00:33:05;;;;;;;13.70;11.88;;;;;;;22.89;76.74;99443.97;5071134;28;20028;-44
2022/09/03 00:35:36;;;;;;;17.58;12.05;;;;;;;22.38;79.49;99441.91;5071248;28;20416;-43
2022/09/03 00:38:02;;;;;;;14.23;12.00;;;;;;;22.43;79.03;99436.44;5070986;28;20524;-44
2022/09/03 00:40:35;;;;;;;13.95;11.90;;;;;;;22.39;79.26;99440.78;5058895;28;20512;-42
2022/09/03 00:43:23;;;;;;;15.05;11.70;;;;;;;22.95;75.98;99437.34;5050217;28;20048;-45
2022/09/03 00:46:04;;;;;;;17.48;11.85;;;;;;;22.50;78.43;99433.34;5031393;28;20062;-43
2022/09/03 00:48:43;;;;;;;13.02;11.57;;;;;;;22.34;79.25;99427.31;5052602;28;20025;-43
2022/09/03 00:51:17;;;;;;;12.48;11.27;;;;;;;22.37;79.29;99432.13;5070960;28;20047;-45
2022/09/03 00:54:09;;;;;;;16.40;12.13;;;;;;;22.78;77.14;99435.16;5071228;28;20028;-47
2022/09/03 00:56:52;;;;;;;13.82;12.43;;;;;;;22.50;78.46;99434.16;5068636;28;20039;-45
2022/09/03 00:59:43;;;;;;;13.68;12.13;;;;;;;22.52;78.17;99431.16;5071007;28;20061;-45
2022/09/03 01:02:17;;;;;;;;;;;;;;;23.20;74.56;99438.13;5071340;28;20021;-47
2022/09/03 01:05:15;;;;;;;15.30;12.50;;;;;;;23.08;74.94;99435.84;5071139;28;19946;-44
2022/09/03 01:08:25;;;;;;;14.68;12.73;;;;;;;22.78;76.36;99437.06;5070619;28;20017;-45
2022/09/03 01:11:09;;;;;;;17.15;12.70;;;;;;;22.94;75.42;99445.78;5051346;28;20031;-45
2022/09/03 01:13:45;;;;;;;16.58;12.85;;;;;;;22.79;75.47;99435.94;5070935;28;20024;-44
2022/09/03 01:16:27;;;;;;;17.23;12.77;;;;;;;22.79;75.53;99439.50;5070858;28;20058;-45
2022/09/03 01:19:26;;;;;;;17.00;12.50;;;;;;;22.76;75.59;99437.34;5070195;28;20046;-44
2022/09/03 01:21:57;;;;;;;14.80;12.48;;;;;;;22.69;75.66;99436.09;5070648;28;20032;-44
2022/09/03 01:24:36;;;;;;;15.70;12.73;;;;;;;22.76;75.04;99437.34;5071078;28;20035;-46
2022/09/03 01:27:07;;;;;;;14.75;12.90;;;;;;;22.63;75.39;99438.06;5070992;28;20031;-48
2022/09/03 01:29:42;;;;;;;14.15;12.65;;;;;;;22.51;75.86;99437.69;5070027;28;20044;-44
2022/09/03 01:32:33;;;;;;;16.13;13.20;;;;;;;22.33;77.39;99433.81;5070149;28;20024;-44
2022/09/03 01:35:16;;;;;;;17.60;13.35;;;;;;;21.89;78.98;99438.31;5070536;28;20433;-43
2022/09/03 01:37:50;;;;;;;16.35;13.43;;;;;;;21.64;80.22;99442.06;5070961;28;20071;-45
2022/09/03 01:40:21;;;;;;;19.77;13.77;;;;;;;21.75;79.90;99426.53;5069094;28;20260;-47
2022/09/03 01:43:05;;;;;;;17.85;13.25;;;;;;;21.75;79.82;99440.09;5058659;28;20024;-45
2022/09/03 01:45:44;;;;;;;16.33;13.63;;;;;;;21.75;80.07;99434.66;5050707;28;20064;-45
2022/09/03 01:48:52;;;;;;;18.20;13.93;;;;;;;21.78;79.42;99432.19;5050438;28;20025;-45
2022/09/03 01:51:22;;;;;;;19.50;13.63;;;;;;;21.57;79.82;99431.56;5070025;28;20032;-44
2022/09/03 01:54:09;;;;;;;16.08;13.32;;;;;;;21.39;81.46;99429.53;5070518;28;20021;-47
2022/09/03 01:57:05;;;;;;;16.67;12.80;;;;;;;21.60;79.43;99432.91;5070268;28;20036;-43
2022/09/03 01:59:54;;;;;;;16.45;13.23;;;;;;;21.50;80.17;99422.97;5069983;28;20553;-44
2022/09/03 02:02:22;;;;;;;14.52;12.68;;;;;;;21.42;79.84;99427.06;5070177;28;20064;-44
2022/09/03 02:05:06;;;;;;;17.10;12.27;;;;;;;21.23;80.87;99426.13;5070090;28;20127;-45
2022/09/03 02:07:54;;;;;;;14.05;12.65;;;;;;;21.38;80.15;99419.78;5070310;28;20136;-46
2022/09/03 02:10:24;;;;;;;16.73;12.40;;;;;;;21.15;80.59;99432.94;5062654;28;20074;-47
2022/09/03 02:12:58;;;;;;;13.93;11.90;;;;;;;21.39;80.06;99430.31;5070024;28;20024;-48
2022/09/03 02:15:25;;;;;;;13.75;12.00;;;;;;;21.32;79.89;99434.44;5070389;28;20036;-45
2022/09/03 02:17:55;;;;;;;14.80;12.43;;;;;;;21.22;79.61;99436.13;5070132;28;20059;-45
2022/09/03 02:20:24;;;;;;;16.48;12.13;;;;;;;21.45;78.70;99437.34;5070160;28;20618;-47
2022/09/03 02:22:53;;;;;;;14.70;12.48;;;;;;;21.34;79.15;99443.88;5070158;28;20025;-43
2022/09/03 02:25:20;;;;;;;15.98;11.90;;;;;;;21.52;78.07;99444.34;5068815;28;20554;-45
2022/09/03 02:27:49;;;;;;;13.38;11.90;;;;;;;21.46;78.69;99452.50;5070126;28;20031;-47
2022/09/03 02:30:16;;;;;;;13.05;11.55;;;;;;;21.53;78.18;99446.75;5069977;28;20028;-46
2022/09/03 02:32:41;;;;;;;13.07;11.68;;;;;;;21.48;78.38;99450.31;5068436;28;20107;-45
2022/09/03 02:35:07;;;;;;;14.05;11.68;;;;;;;21.54;77.99;99453.00;5070227;28;20030;-45
2022/09/03 02:37:33;;;;;;;16.75;11.80;;;;;;;21.47;78.13;99456.81;5070169;28;20493;-46
2022/09/03 02:39:59;;;;;;;16.95;11.68;;;;;;;21.43;78.64;99463.03;5069826;28;20024;-45
2022/09/03 02:42:24;;;;;;;15.50;11.52;;;;;;;21.58;76.51;99446.72;5061583;28;20083;-44
2022/09/03 02:44:56;;;;;;;15.88;12.02;;;;;;;21.29;78.05;99449.34;5049608;28;20105;-47
2022/09/03 02:47:24;;;;;;;13.88;11.93;;;;;;;21.29;78.60;99469.09;5053634;28;20120;-44
2022/09/03 02:49:49;;;;;;;14.52;11.25;;;;;;;21.62;76.40;99460.50;5065856;28;20032;-44
2022/09/03 02:52:15;;;;;;;13.80;11.02;;;;;;;21.50;76.33;99450.03;5073412;28;20086;-43
2022/09/03 02:54:41;;;;;;;14.30;10.98;;;;;;;21.52;76.34;99457.88;5073458;28;20456;-44
2022/09/03 02:57:08;;;;;;;12.45;10.82;;;;;;;21.55;76.00;99465.41;5073607;28;20021;-44
2022/09/03 02:59:34;;;;;;;15.07;11.00;;;;;;;21.56;76.17;99464.34;5073122;28;20028;-44
2022/09/03 03:02:00;;;;;;;14.73;10.52;;;;;;;21.51;76.37;99469.78;5073585;28;20059;-46
2022/09/03 03:04:26;;;;;;;12.52;10.40;;;;;;;21.46;76.34;99468.75;5072953;28;20079;-43
2022/09/03 03:06:51;;;;;;;12.30;10.95;;;;;;;21.46;76.50;99463.31;5072956;28;20024;-45
2022/09/03 03:09:17;;;;;;;12.55;10.02;;;;;;;21.82;74.87;99454.09;5073131;28;20020;-47
2022/09/03 03:11:43;;;;;;;14.88;10.43;;;;;;;21.96;74.09;99465.06;5073139;28;20028;-44
2022/09/03 03:14:09;;;;;;;13.35;10.63;;;;;;;21.81;74.58;99463.31;5073214;28;20039;-43
2022/09/03 03:16:34;;;;;;;12.77;10.35;;;;;;;21.85;74.39;99467.06;5072926;28;20079;-47
2022/09/03 03:19:00;;;;;;;13.80;10.23;;;;;;;22.17;72.93;99457.56;5072835;28;20423;-44
2022/09/03 03:21:25;;;;;;;13.65;10.15;;;;;;;21.91;73.11;99457.78;5070919;28;20020;-46
2022/09/03 03:23:51;;;;;;;13.82;9.57;;;;;;;21.89;73.00;99454.56;5054587;28;20127;-43
2022/09/03 03:26:19;;;;;;;11.65;9.18;;;;;;;21.47;75.07;99456.00;5052674;28;20029;-43
2022/09/03 03:28:47;;;;;;;10.68;9.40;;;;;;;21.40;75.41;99452.78;5052667;28;20116;-43
2022/09/03 03:31:19;;;;;;;12.45;9.57;;;;;;;21.21;76.48;99456.16;5052734;28;20037;-44
2022/09/03 03:33:53;;;;;;;11.38;9.25;;;;;;;21.65;74.36;99454.53;5052554;28;20032;-44
2022/09/03 03:36:20;;;;;;;12.45;9.63;;;;;;;21.75;73.48;99448.22;5052822;28;20025;-43
2022/09/03 03:38:46;;;;;;;11.88;9.35;;;;;;;21.90;73.01;99463.50;5052327;28;20120;-43
2022/09/03 03:41:23;;;;;;;14.05;9.27;;;;;;;21.90;72.97;99455.38;5052379;28;20036;-43
2022/09/03 03:43:56;;;;;;;12.20;9.25;;;;;;;22.15;71.94;99451.59;5053080;28;20126;-45
2022/09/03 03:46:23;;;;;;;14.82;9.43;;;;;;;22.19;71.43;99453.44;5052905;28;20428;-45
2022/09/03 03:48:50;;;;;;;12.35;9.38;;;;;;;22.17;71.28;99461.06;5056653;28;20025;-45
2022/09/03 03:51:17;;;;;;;14.20;9.73;;;;;;;22.01;71.96;99462.31;5072213;28;20098;-45
2022/09/03 03:53:43;;;;;;;11.50;9.52;;;;;;;21.57;73.78;99457.81;5071892;28;20028;-44
2022/09/03 03:56:11;;;;;;;12.82;9.63;;;;;;;21.02;76.45;99461.44;5071460;28;20031;-43
2022/09/03 03:58:37;;;;;;;14.50;8.98;;;;;;;21.04;75.98;99455.75;5071705;28;20469;-43
2022/09/03 04:01:15;;;;;;;17.10;9.95;;;;;;;21.48;74.64;99469.25;5072002;28;20456;-44
2022/09/03 04:03:40;;;;;;;11.82;9.18;;;;;;;21.63;73.40;99462.13;5072074;28;20078;-43
2022/09/03 04:06:07;;;;;;;16.02;9.45;;;;;;;21.32;75.20;99459.59;5071891;28;20437;-44
2022/09/03 04:08:35;;;;;;;14.75;9.25;;;;;;;21.54;73.58;99466.53;5071303;28;20109;-44
2022/09/03 04:11:02;;;;;;;14.63;9.35;;;;;;;21.62;73.64;99461.28;5071926;28;20066;-44
2022/09/03 04:13:32;;;;;;;11.27;8.75;;;;;;;21.69;73.31;99468.31;5071889;28;20090;-44
2022/09/03 04:16:01;;;;;;;11.50;9.05;;;;;;;21.35;74.53;99467.16;5071963;28;20111;-45
2022/09/03 04:18:28;;;;;;;9.90;8.32;;;;;;;21.58;73.52;99468.38;5071534;28;20393;-45
2022/09/03 04:21:03;;;;;;;9.95;7.78;;;;;;;21.61;73.85;99472.41;5071459;28;20039;-44
2022/09/03 04:23:38;;;;;;;12.10;7.53;;;;;;;21.47;73.63;99473.03;5056874;28;20075;-46
2022/09/03 04:26:05;;;;;;;12.15;8.00;;;;;;;21.60;72.79;99470.81;5051736;28;20382;-47
2022/09/03 04:28:31;;;;;;;10.05;7.63;;;;;;;21.82;72.15;99470.34;5051869;28;20016;-44
2022/09/03 04:31:05;;;;;;;10.63;7.10;;;;;;;21.61;72.51;99466.97;5051049;28;20428;-45
2022/09/03 04:33:32;;;;;;;19.23;12.55;;;;;;;21.82;72.59;99473.06;5051901;28;20108;-46
2022/09/03 04:36:21;;;;;;;14.57;7.82;;;;;;;21.75;72.42;99470.66;5051992;28;20108;-44
2022/09/03 04:38:49;;;;;;;10.80;7.55;;;;;;;21.72;71.98;99475.84;5046375;28;20124;-46
2022/09/03 04:41:18;;;;;;;9.40;7.35;;;;;;;21.88;71.27;99480.03;5051391;28;20083;-44
2022/09/03 04:43:43;;;;;;;9.10;5.70;;;;;;;21.74;71.34;99473.66;5051538;28;20032;-44
2022/09/03 04:46:12;;;;;;;8.52;5.65;;;;;;;21.98;70.64;99485.34;5051507;28;20341;-43
2022/09/03 04:48:38;;;;;;;7.55;5.60;;;;;;;22.09;70.54;99483.38;5051688;28;20415;-44
2022/09/03 04:51:08;;;;;;;16.35;10.20;;;;;;;22.51;68.31;99484.56;5070770;28;20032;-44
2022/09/03 04:53:36;;;;;;;13.27;10.95;;;;;;;22.90;67.36;99491.69;5070980;28;20432;-45
2022/09/03 04:56:02;;;;;;;9.18;5.32;;;;;;;23.10;66.23;99497.97;5071293;28;20043;-44
2022/09/03 04:58:28;;;;;;;8.77;6.80;;;;;;;23.06;66.51;99508.63;5071144;28;20437;-43
2022/09/03 05:00:53;;;;;;;8.23;5.18;;;;;;;23.01;66.58;99498.59;5071153;28;20119;-44
2022/09/03 05:03:20;;;;;;;7.78;5.50;;;;;;;23.12;66.37;99506.63;5070984;28;20100;-44
2022/09/03 05:05:55;;;;;;;7.45;5.47;;;;;;;23.09;66.12;99507.22;5071069;28;20028;-45
2022/09/03 05:08:21;;;;;;;7.30;5.38;;;;;;;23.26;65.91;99509.41;5070089;28;20082;-44
2022/09/03 05:10:46;;;;;;;6.60;5.10;;;;;;;22.96;66.79;99505.97;5059918;28;20086;-46
2022/09/03 05:13:12;;;;;;;9.43;5.25;;;;;;;23.26;65.48;99512.13;5050713;28;20032;-43
2022/09/03 05:15:37;;;;;;;12.93;5.68;;;;;;;23.42;65.22;99521.69;5051351;28;20032;-46
2022/09/03 05:18:03;;;;;;;16.17;9.48;;;;;;;23.83;64.04;99512.13;5050651;28;20048;-44
2022/09/03 05:20:29;;;;;;;10.55;5.53;;;;;;;24.11;62.72;99519.22;5050201;28;20085;-43
2022/09/03 05:22:56;;;;;;;7.22;5.32;;;;;;;24.10;62.61;99522.25;5049971;28;20040;-45
2022/09/03 05:25:22;;;;;;;10.43;5.60;;;;;;;24.48;61.90;99517.47;5049351;28;20061;-44
2022/09/03 05:27:47;;;;;;;9.45;5.30;;;;;;;24.91;60.51;99525.34;5049647;28;20099;-43
2022/09/03 05:30:13;;;;;;;8.23;5.20;;;;;;;25.15;59.76;99525.13;5049558;28;20171;-44
2022/09/03 05:32:39;;;;;;;10.48;6.47;;;;;;;25.46;57.91;99489.03;5049912;28;20066;-45
2022/09/03 05:35:06;;;;;;;9.60;4.80;;;;;;;25.81;57.50;99530.16;5049471;28;20037;-43
2022/09/03 05:37:31;;;;;;;9.70;4.93;;;;;;;26.20;56.44;99527.84;5049720;28;20035;-44
2022/09/03 05:39:57;;;;;;;6.80;5.03;;;;;;;26.31;56.03;99534.63;5049756;28;20021;-45
2022/09/03 05:42:22;;;;;;;5.97;4.60;;;;;;;26.19;56.10;99534.44;5049670;28;20393;-44
2022/09/03 05:44:48;;;;;;;7.43;4.55;;;;;;;25.89;56.21;99534.88;5049626;28;20033;-45
2022/09/03 05:47:14;;;;;;;10.18;4.70;;;;;;;26.12;56.64;99526.69;5049465;28;20044;-43
2022/09/03 05:49:40;;;;;;;6.82;4.57;;;;;;;26.25;55.33;99536.69;5049457;28;20029;-45
2022/09/03 05:52:05;;;;;;;7.63;4.35;;;;;;;26.12;54.58;99543.03;5049626;28;20039;-44
2022/09/03 05:54:31;;;;;;;7.53;3.83;;;;;;;25.85;56.28;99541.25;5049780;28;20029;-43
2022/09/03 05:56:56;;;;;;;8.20;4.53;;;;;;;26.38;54.86;99528.75;5049032;28;20029;-44
2022/09/03 05:59:22;;;;;;;7.55;4.90;;;;;;;26.77;53.53;99541.63;5049528;28;20052;-43
2022/09/03 06:01:48;;;;;;;7.88;4.47;;;;;;;26.62;53.89;99531.94;5049414;28;20444;-44
2022/09/03 06:04:15;;;;;;;7.88;4.97;;;;;;;26.99;52.85;99535.22;5049443;28;20029;-44
2022/09/03 06:06:45;;;;;;;7.93;4.70;;;;;;;27.51;51.72;99523.56;5049069;28;20108;-43
2022/09/03 06:09:15;;;;;;;7.40;4.53;;;;;;;28.22;50.45;99549.72;5049240;28;20067;-44
2022/09/03 06:11:41;;;;;;;7.72;4.70;;;;;;;28.85;48.68;99548.03;5048934;28;20485;-43
2022/09/03 06:14:08;;;;;;;8.00;4.72;;;;;;;28.67;48.45;99554.72;5048473;28;20018;-43
2022/09/03 06:16:37;;;;;;;7.40;4.55;;;;;;;28.71;48.53;99542.00;5048320;28;20445;-45
2022/09/03 06:19:06;;;;;;;;;;;;;;;28.85;48.13;99548.03;5049283;28;20037;-43
2022/09/03 06:21:31;;;;;;;7.30;4.53;;;;;;;28.72;48.58;99551.00;5052303;28;19916;-42
2022/09/03 06:23:58;;;;;;;6.43;4.80;;;;;;;29.42;46.92;99549.47;5050920;28;20377;-44
2022/09/03 06:26:24;;;;;;;8.60;4.65;;;;;;;29.30;46.67;99541.19;5051078;28;20481;-42
2022/09/03 06:28:54;;;;;;;8.73;5.90;;;;;;;29.13;47.36;99542.13;5051290;28;20124;-47
2022/09/03 06:31:19;;;;;;;7.93;5.60;;;;;;;29.28;46.89;99546.19;5051488;28;20071;-44
2022/09/03 06:33:46;;;;;;;6.55;4.40;;;;;;;29.40;47.00;99548.22;5051868;28;20052;-47
2022/09/03 06:36:16;;;;;;;8.85;4.60;;;;;;;29.66;45.95;99545.22;5051549;28;20036;-47
2022/09/03 06:38:43;;;;;;;9.77;5.28;;;;;;;28.72;47.50;99538.13;5051836;28;20037;-44
2022/09/03 06:41:10;;;;;;;7.78;4.82;;;;;;;28.19;49.13;99550.38;5052588;28;20044;-46
2022/09/03 06:43:38;;;;;;;7.90;4.60;;;;;;;28.72;48.14;99551.00;5052505;28;20025;-47
2022/09/03 06:46:06;;;;;;;7.13;5.10;;;;;;;28.89;47.92;99552.88;5052180;28;20033;-45
2022/09/03 06:48:34;;;;;;;5.50;4.60;;;;;;;28.96;47.71;99556.69;5052511;28;20172;-44
2022/09/03 06:51:02;;;;;;;6.07;4.85;;;;;;;29.31;46.62;99555.69;5052245;28;20481;-44
2022/09/03 06:53:31;;;;;;;8.35;4.55;;;;;;;28.35;48.59;99562.41;5051838;28;20033;-44
2022/09/03 06:56:00;;;;;;;6.95;4.78;;;;;;;27.83;49.69;99546.84;5051867;28;20029;-46
2022/09/03 06:58:37;;;;;;;6.78;4.85;;;;;;;28.19;48.96;99553.09;5050525;28;20052;-44
2022/09/03 07:01:08;;;;;;;7.85;4.80;;;;;;;27.63;50.61;99545.59;5050114;28;20076;-44
2022/09/03 07:03:35;;;;;;;6.15;4.70;;;;;;;27.58;50.36;99548.50;5051596;28;20033;-44
2022/09/03 07:06:03;;;;;;;6.57;5.63;;;;;;;28.08;50.30;99553.47;5051523;28;20040;-43
2022/09/03 07:08:31;;;;;;;5.50;4.45;;;;;;;28.45;49.11;99550.31;5051729;28;20405;-43
2022/09/03 07:11:07;;;;;;;7.45;4.72;;;;;;;28.92;48.37;99552.19;5051029;28;20093;-43
2022/09/03 07:13:34;;;;;;;6.60;4.63;;;;;;;29.51;47.22;99557.63;5051529;28;20029;-45
2022/09/03 07:16:10;;;;;;;6.90;4.88;;;;;;;29.99;46.78;99560.94;5051273;28;20386;-44
2022/09/03 07:18:36;;;;;;;8.68;4.93;;;;;;;29.73;46.15;99553.75;5051225;28;20485;-45
2022/09/03 07:21:08;;;;;;;6.85;4.60;;;;;;;28.95;47.19;99555.06;5050964;28;20032;-43
2022/09/03 07:23:34;;;;;;;6.05;4.65;;;;;;;29.02;47.52;99560.84;5051134;28;20020;-42
2022/09/03 07:26:02;;;;;;;5.30;4.40;;;;;;;29.41;46.98;99567.03;5051307;28;20021;-44
2022/09/03 07:28:29;;;;;;;7.70;4.63;;;;;;;30.23;45.31;99565.66;5050679;28;20024;-44
2022/09/03 07:31:01;;;;;;;10.18;4.85;;;;;;;30.31;44.85;99570.28;5050068;28;20028;-44
2022/09/03 07:33:30;;;;;;;6.88;4.85;;;;;;;30.67;43.94;99573.44;5050651;28;20488;-44
2022/09/03 07:36:00;;;;;;;5.90;4.70;;;;;;;30.81;43.73;99565.66;5051137;28;20116;-47
2022/09/03 07:38:26;;;;;;;6.07;4.50;;;;;;;31.02;43.26;99564.78;5051177;28;20102;-44
2022/09/03 07:40:58;;;;;;;10.63;4.43;;;;;;;31.18;43.17;99569.19;5051107;28;20056;-47
2022/09/03 07:43:25;;;;;;;8.90;4.75;;;;;;;30.97;42.41;99569.31;5050533;28;20495;-43
2022/09/03 07:45:51;;;;;;;5.45;4.40;;;;;;;30.91;42.31;99573.47;5051078;28;20190;-44
2022/09/03 07:48:16;;;;;;;6.32;4.05;;;;;;;29.85;45.00;99566.69;5050864;28;20501;-44
2022/09/03 07:50:42;;;;;;;5.45;3.60;;;;;;;30.08;44.00;99577.28;5053260;28;20420;-47
2022/09/03 07:53:07;;;;;;;8.15;4.20;;;;;;;30.76;42.52;99554.91;5049358;28;20059;-44
2022/09/03 07:55:33;;;;;;;7.90;3.88;;;;;;;30.88;42.06;99565.06;5050659;28;20028;-46
2022/09/03 07:57:58;;;;;;;5.30;3.63;;;;;;;30.78;40.83;99571.84;5051342;28;20056;-44
2022/09/03 08:00:24;;;;;;;6.43;3.50;;;;;;;30.40;41.77;99573.72;5056692;28;20025;-45
2022/09/03 08:02:53;;;;;;;3.78;3.25;;;;;;;30.92;40.71;99566.00;5053873;28;20036;-44
2022/09/03 08:05:21;;;;;;;5.45;3.45;;;;;;;30.13;42.90;99568.84;5050258;28;20058;-46
2022/09/03 08:07:47;;;;;;;5.68;3.40;;;;;;;30.63;42.25;99559.56;5050729;28;20053;-44
2022/09/03 08:10:15;;;;;;;4.03;3.60;;;;;;;30.72;42.89;99559.47;5050186;28;20059;-43
2022/09/03 08:12:40;;;;;;;5.22;3.60;;;;;;;31.36;41.27;99561.50;5050369;28;20035;-44
2022/09/03 08:15:07;;;;;;;5.28;4.00;;;;;;;31.69;41.32;99552.25;5050107;28;20025;-43
2022/09/03 08:17:32;;;;;;;4.30;3.90;;;;;;;31.51;40.87;99557.25;5050050;28;20582;-45
2022/09/03 08:19:59;;;;;;;6.72;4.03;;;;;;;31.70;40.80;99558.53;5050021;28;20029;-43
2022/09/03 08:22:24;;;;;;;5.10;4.05;;;;;;;31.54;41.32;99547.50;5050669;28;20079;-43
2022/09/03 08:24:53;;;;;;;5.97;3.85;;;;;;;31.60;40.42;99548.84;5050995;28;20028;-44
2022/09/03 08:27:25;;;;;;;8.88;4.00;;;;;;;31.39;40.12;99535.25;5050492;28;20103;-44
2022/09/03 08:29:50;;;;;;;4.90;3.92;;;;;;;31.59;39.92;99550.00;5050283;28;20025;-46
2022/09/03 08:32:15;;;;;;;5.95;4.05;;;;;;;31.21;40.59;99553.97;5051070;28;20518;-45
2022/09/03 08:34:41;;;;;;;5.20;4.70;;;;;;;30.19;42.81;99551.03;5051194;28;20021;-44
2022/09/03 08:37:08;;;;;;;8.68;4.25;;;;;;;30.34;43.05;99557.84;5050919;28;20039;-44
2022/09/03 08:39:34;;;;;;;5.43;4.40;;;;;;;30.58;42.34;99540.59;5049910;28;20472;-46
2022/09/03 08:42:24;;;;;;;5.97;4.57;;;;;;;31.50;40.80;99544.63;5050752;28;20032;-42
2022/09/03 08:44:57;;;;;;;8.00;4.85;;;;;;;31.60;40.29;99542.53;5050882;28;20476;-44
2022/09/03 08:47:31;;;;;;;7.32;4.93;;;;;;;31.80;39.11;99538.00;5050102;28;20124;-44
2022/09/03 08:50:21;;;;;;;6.82;5.15;;;;;;;31.67;39.54;99546.28;5064233;28;20103;-46
2022/09/03 08:52:50;;;;;;;8.60;5.20;;;;;;;31.54;39.27;99542.00;5070255;28;20036;-43
2022/09/03 08:55:19;;;;;;;5.20;4.57;;;;;;;31.95;38.86;99540.78;5070405;28;20040;-46
2022/09/03 08:57:51;;;;;;;5.47;4.93;;;;;;;32.38;38.16;99537.56;5069889;28;20028;-43
2022/09/03 09:00:18;;;;;;;6.15;5.20;;;;;;;32.12;38.44;99528.69;5070242;28;20028;-46
2022/09/03 09:03:00;;;;;;;5.40;4.50;;;;;;;31.65;39.54;99521.09;5070487;28;20107;-46
2022/09/03 09:05:35;;;;;;;6.90;4.60;;;;;;;31.63;38.52;99523.41;5070478;28;20028;-47
2022/09/03 09:08:26;;;;;;;5.55;4.78;;;;;;;31.74;38.42;99527.25;5069957;28;20020;-47
2022/09/03 09:11:04;;;;;;;5.72;4.53;;;;;;;32.10;38.47;99527.41;5064053;28;20045;-42
2022/09/03 09:13:48;;;;;;;7.28;4.88;;;;;;;32.20;38.09;99539.88;5069878;28;20036;-45
2022/09/03 09:16:39;;;;;;;5.78;4.43;;;;;;;32.07;38.64;99539.16;5069490;28;20036;-46
2022/09/03 09:19:25;;;;;;;5.47;4.68;;;;;;;31.75;38.49;99528.03;5069771;28;20119;-44
2022/09/03 09:22:02;;;;;;;7.70;5.13;;;;;;;30.94;40.41;99537.06;5069542;28;20033;-44
2022/09/03 09:24:36;;;;;;;9.18;4.82;;;;;;;31.77;38.94;99542.22;5070009;28;20046;-46
2022/09/03 09:27:04;;;;;;;6.43;4.80;;;;;;;31.51;39.72;99534.44;5069739;28;20103;-46
2022/09/03 09:29:39;;;;;;;6.13;4.75;;;;;;;31.81;38.72;99534.09;5069342;28;20090;-46
2022/09/03 09:32:09;;;;;;;7.65;4.90;;;;;;;31.58;39.18;99536.59;5070052;28;20063;-46
2022/09/03 09:34:40;;;;;;;5.07;4.50;;;;;;;31.98;38.05;99542.00;5070313;28;20062;-44
2022/09/03 09:37:09;;;;;;;5.72;4.85;;;;;;;31.76;38.63;99533.19;5069864;28;20400;-47
2022/09/03 09:39:35;;;;;;;7.82;5.03;;;;;;;31.42;39.62;99539.25;5069652;28;20465;-47
2022/09/03 09:42:10;;;;;;;7.40;5.00;;;;;;;31.93;38.08;99534.03;5070136;28;20028;-46
2022/09/03 09:44:40;;;;;;;5.38;4.45;;;;;;;32.21;37.31;99528.50;5069972;28;20027;-44
2022/09/03 09:47:12;;;;;;;5.72;4.57;;;;;;;32.63;37.37;99540.94;5067910;28;20024;-45
2022/09/03 09:49:58;;;;;;;6.38;4.53;;;;;;;31.89;38.85;99533.94;5060896;28;20125;-47
2022/09/03 09:52:32;;;;;;;5.53;4.90;;;;;;;32.12;38.45;99533.34;5055668;28;20123;-44
2022/09/03 09:55:13;;;;;;;4.90;4.25;;;;;;;32.48;36.95;99531.50;5051615;28;20473;-45
2022/09/03 09:57:39;;;;;;;4.88;4.38;;;;;;;32.41;37.46;99536.88;5052737;28;20155;-44
2022/09/03 10:00:10;;;;;;;5.13;4.32;;;;;;;32.44;37.34;99533.38;5053559;28;20044;-43
2022/09/03 10:02:39;;;;;;;4.80;4.30;;;;;;;32.31;37.26;99530.72;5053622;28;20087;-44
2022/09/03 10:05:23;;;;;;;6.72;4.75;;;;;;;31.86;38.19;99531.09;5053813;28;20029;-43
2022/09/03 10:07:59;;;;;;;6.78;4.35;;;;;;;31.49;38.74;99537.56;5053831;28;20344;-45
2022/09/03 10:10:27;;;;;;;8.07;5.70;;;;;;;31.72;39.10;99520.47;5053344;28;20416;-43
2022/09/03 10:13:20;;;;;;;6.60;5.03;;;;;;;32.13;38.64;99524.75;5053377;28;20037;-45
2022/09/03 10:16:14;;;;;;;5.47;4.60;;;;;;;32.23;38.05;99522.63;5053381;28;20110;-44
2022/09/03 10:18:46;;;;;;;6.32;4.45;;;;;;;32.25;38.00;99515.63;5053371;28;20037;-45
2022/09/03 10:21:19;;;;;;;5.78;4.60;;;;;;;32.37;38.21;99508.41;5052732;28;20021;-44
2022/09/03 10:23:58;;;;;;;5.95;4.50;;;;;;;32.30;38.33;99503.56;5052857;28;20020;-44
2022/09/03 10:26:29;;;;;;;5.15;4.63;;;;;;;32.29;37.40;99501.94;5052968;28;20017;-44
2022/09/03 10:29:04;;;;;;;7.05;4.57;;;;;;;32.28;37.68;99503.09;5052856;28;20025;-43
2022/09/03 10:31:52;;;;;;;5.95;4.60;;;;;;;32.57;38.16;99501.06;5053078;28;20121;-46
2022/09/03 10:34:22;;;;;;;4.88;4.38;;;;;;;32.26;38.31;99506.22;5052919;28;20107;-44
2022/09/03 10:37:06;;;;;;;5.30;4.80;;;;;;;32.27;38.51;99496.00;5053416;28;20080;-44
2022/09/03 10:39:53;;;;;;;7.78;5.07;;;;;;;32.79;37.79;99499.63;5052610;28;20056;-44
2022/09/03 10:42:39;;;;;;;5.35;4.50;;;;;;;32.61;37.42;99505.50;5053158;28;20093;-43
2022/09/03 10:45:27;;;;;;;5.85;4.75;;;;;;;32.66;37.63;99502.47;5052544;28;20021;-44
2022/09/03 10:48:23;;;;;;;8.88;5.40;;;;;;;32.54;37.59;99503.34;5052857;28;20493;-46
2022/09/03 10:50:55;;;;;;;6.53;4.78;;;;;;;32.67;38.01;99498.59;5033071;28;20059;-43
2022/09/03 10:53:56;;;;;;;8.57;4.55;;;;;;;32.78;37.60;99503.53;5052677;28;20029;-43
2022/09/03 10:56:33;;;;;;;5.38;4.80;;;;;;;33.03;36.39;99501.31;5045211;28;20120;-46
2022/09/03 10:59:20;;;;;;;5.85;4.82;;;;;;;32.68;36.81;99505.66;5051368;28;20099;-47
2022/09/03 11:01:56;;;;;;;5.63;4.70;;;;;;;33.00;36.68;99502.84;5051232;28;20025;-45
2022/09/03 11:04:48;;;;;;;8.75;5.20;;;;;;;33.24;37.08;99493.56;5052573;28;20025;-46
2022/09/03 11:07:19;;;;;;;5.68;5.07;;;;;;;33.54;36.23;99492.94;5051670;28;20099;-45
2022/09/03 11:10:01;;;;;;;6.20;4.85;;;;;;;33.60;35.47;99499.75;5052437;28;20051;-45
2022/09/03 11:12:34;;;;;;;5.28;4.75;;;;;;;33.47;36.12;99504.66;5052443;28;20027;-44
2022/09/03 11:15:17;;;;;;;10.48;9.30;;;;;;;33.10;35.23;99498.72;5052740;28;20025;-44
2022/09/03 11:17:49;;;;;;;5.10;4.60;;;;;;;33.10;35.45;99507.81;5052200;28;20049;-45
2022/09/03 11:20:21;;;;;;;5.32;4.82;;;;;;;33.63;35.48;99501.81;5052498;28;20021;-43
2022/09/03 11:22:50;;;;;;;5.90;4.50;;;;;;;32.97;36.38;99506.31;5051969;28;20485;-46
2022/09/03 11:25:20;;;;;;;5.93;4.75;;;;;;;33.39;36.35;99499.34;5052178;28;20036;-36
2022/09/03 11:28:22;;;;;;;6.63;4.65;;;;;;;33.37;35.70;99493.41;5049452;28;20562;-36
2022/09/03 11:31:16;;;;;;;5.43;4.90;;;;;;;33.25;35.61;99486.06;5049446;28;20028;-37
2022/09/03 11:34:00;;;;;;;6.32;4.82;;;;;;;33.66;34.15;99492.00;5049739;28;20076;-36
2022/09/03 11:36:32;;;;;;;6.35;4.90;;;;;;;33.48;35.67;99494.41;5048261;28;20025;-37
2022/09/03 11:38:59;;;;;;;6.32;5.07;;;;;;;33.63;34.96;99485.28;5051697;28;20025;-37
2022/09/03 11:41:34;;;;;;;6.47;4.70;;;;;;;33.79;34.75;99489.91;5049360;28;20080;-37
2022/09/03 11:44:15;;;;;;;5.88;4.30;;;;;;;34.00;33.89;99478.44;5059860;28;20495;-44
2022/09/03 11:46:53;;;;;;;6.68;4.53;;;;;;;33.96;34.60;99486.66;5055898;28;20039;-45
2022/09/03 11:49:29;;;;;;;9.40;4.80;;;;;;;33.49;34.29;99482.19;5059311;28;20028;-45
2022/09/03 11:52:08;;;;;;;4.35;3.60;;;;;;;33.11;35.53;99484.63;5050109;28;20116;-44
2022/09/03 11:54:42;;;;;;;;;;;;;;;33.35;35.20;99473.66;5049128;28;20531;-42